createdAt,value
2022-12-25T00:01:16.842Z,5.60
2022-12-25T00:03:43.964Z,5.60
2022-12-25T00:06:11.009Z,5.60
2022-12-25T00:08:38.548Z,5.60
2022-12-25T00:11:06.902Z,5.60
2022-12-25T00:16:04.966Z,5.60
2022-12-25T00:18:31.867Z,5.60
2022-12-25T00:20:59.967Z,5.60
2022-12-25T00:23:27.029Z,5.50
2022-12-25T00:28:21.711Z,5.40
2022-12-25T00:30:48.576Z,5.40
2022-12-25T00:33:15.747Z,5.40
2022-12-25T00:35:42.963Z,5.40
2022-12-25T00:38:10.247Z,5.40
2022-12-25T00:40:44.194Z,5.40
2022-12-25T00:45:38.440Z,5.40
2022-12-25T00:48:05.450Z,5.40
2022-12-25T00:52:59.497Z,5.40
2022-12-25T00:55:26.491Z,5.40
2022-12-25T00:57:53.372Z,5.40
2022-12-25T01:00:20.267Z,5.40
2022-12-25T01:02:47.227Z,5.40
2022-12-25T01:05:14.259Z,5.40
2022-12-25T01:10:24.852Z,5.40
2022-12-25T01:12:52.224Z,5.30
2022-12-25T01:15:19.478Z,5.30
2022-12-25T01:17:46.367Z,5.30
2022-12-25T01:20:14.090Z,5.30
2022-12-25T01:22:41.123Z,5.30
2022-12-25T01:25:09.317Z,5.40
2022-12-25T01:27:36.243Z,5.40
2022-12-25T01:32:30.429Z,5.50
2022-12-25T01:34:57.265Z,5.50
2022-12-25T01:37:24.893Z,5.50
2022-12-25T01:42:20.105Z,5.50
2022-12-25T01:44:46.925Z,5.60
2022-12-25T01:47:15.185Z,5.70
2022-12-25T01:49:44.236Z,5.90
2022-12-25T01:52:14.920Z,6.00
2022-12-25T01:54:46.369Z,6.20
2022-12-25T01:57:16.567Z,6.40
2022-12-25T01:59:43.674Z,6.50
2022-12-25T02:04:41.098Z,6.80
2022-12-25T02:07:07.915Z,6.80
2022-12-25T02:09:35.103Z,6.90
2022-12-25T02:12:02.079Z,6.90
2022-12-25T02:14:31.237Z,6.90
2022-12-25T02:17:05.941Z,7.00
2022-12-25T02:19:51.373Z,6.90
2022-12-25T02:22:44.354Z,6.90
2022-12-25T02:25:33.642Z,6.90
2022-12-25T02:28:13.048Z,6.90
2022-12-25T02:30:43.027Z,7.00
2022-12-25T02:33:33.098Z,7.00
2022-12-25T02:36:03.978Z,7.00
2022-12-25T02:38:36.988Z,7.00
2022-12-25T02:41:09.668Z,6.90
2022-12-25T02:44:00.410Z,6.90
2022-12-25T02:46:47.137Z,6.80
2022-12-25T02:49:36.867Z,6.70
2022-12-25T02:52:24.112Z,6.60
2022-12-25T02:55:11.945Z,6.60
2022-12-25T02:58:01.218Z,6.50
2022-12-25T03:00:47.020Z,6.50
2022-12-25T03:03:33.435Z,6.40
2022-12-25T03:06:20.856Z,6.30
2022-12-25T03:08:50.751Z,6.30
2022-12-25T03:14:27.687Z,6.30
2022-12-25T03:16:56.256Z,6.20
2022-12-25T03:19:43.153Z,6.20
2022-12-25T03:22:32.192Z,6.10
2022-12-25T03:25:17.967Z,6.10
2022-12-25T03:27:46.807Z,6.10
2022-12-25T03:33:36.710Z,5.90
2022-12-25T03:36:07.099Z,5.90
2022-12-25T03:38:52.156Z,5.90
2022-12-25T03:41:40.445Z,8.00
2022-12-25T03:44:44.932Z,5.90
2022-12-25T03:47:35.010Z,5.90
2022-12-25T03:53:07.000Z,5.90
2022-12-25T03:55:53.350Z,5.80
2022-12-25T03:58:40.170Z,5.90
2022-12-25T04:01:25.608Z,5.80
2022-12-25T04:04:10.962Z,5.70
2022-12-25T04:06:56.726Z,5.70
2022-12-25T04:09:42.488Z,5.70
2022-12-25T04:12:27.806Z,5.70
2022-12-25T04:15:13.132Z,5.60
2022-12-25T04:17:58.447Z,5.60
2022-12-25T04:20:43.702Z,5.60
2022-12-25T04:26:17.788Z,5.50
2022-12-25T04:31:49.024Z,5.40
2022-12-25T04:34:34.201Z,5.40
2022-12-25T04:37:01.051Z,5.40
2022-12-25T04:39:27.993Z,5.40
2022-12-25T04:41:54.874Z,5.30
2022-12-25T04:44:21.742Z,5.40
2022-12-25T04:49:15.893Z,5.40
2022-12-25T04:51:42.719Z,5.40
2022-12-25T04:54:09.545Z,5.40
2022-12-25T04:56:41.668Z,5.40
2022-12-25T05:01:39.592Z,5.30
2022-12-25T05:04:06.654Z,5.30
2022-12-25T05:06:33.489Z,5.30
2022-12-25T05:09:00.383Z,5.30
2022-12-25T05:11:27.820Z,5.30
2022-12-25T05:13:54.632Z,5.20
2022-12-25T05:16:21.588Z,5.20
2022-12-25T05:18:49.329Z,5.30
2022-12-25T05:21:16.813Z,5.20
2022-12-25T05:23:48.687Z,5.10
2022-12-25T05:26:17.167Z,5.20
2022-12-25T05:28:44.059Z,5.20
2022-12-25T05:31:10.969Z,5.10
2022-12-25T05:33:37.853Z,5.10
2022-12-25T05:36:11.541Z,5.10
2022-12-25T05:38:38.919Z,5.10
2022-12-25T05:41:05.865Z,5.10
2022-12-25T05:43:32.820Z,5.10
2022-12-25T05:46:04.059Z,5.10
2022-12-25T05:50:58.101Z,5.10
2022-12-25T05:53:25.008Z,5.10
2022-12-25T05:55:51.937Z,5.00
2022-12-25T05:58:18.748Z,5.00
2022-12-25T06:00:45.768Z,5.00
2022-12-25T06:03:12.807Z,5.00
2022-12-25T06:05:40.027Z,5.00
2022-12-25T06:08:06.892Z,5.00
2022-12-25T06:10:33.872Z,5.00
2022-12-25T06:13:01.053Z,5.00
2022-12-25T06:15:27.936Z,5.00
2022-12-25T06:17:54.766Z,5.20
2022-12-25T06:20:21.722Z,4.80
2022-12-25T06:22:48.563Z,4.80
2022-12-25T06:25:15.755Z,4.70
2022-12-25T06:27:42.730Z,4.70
2022-12-25T06:30:10.177Z,4.60
2022-12-25T06:32:37.406Z,4.60
2022-12-25T06:35:04.431Z,4.50
2022-12-25T06:37:31.521Z,4.40
2022-12-25T06:39:58.464Z,4.40
2022-12-25T06:42:25.389Z,4.30
2022-12-25T06:44:53.394Z,4.20
2022-12-25T06:47:20.238Z,4.10
2022-12-25T06:49:47.095Z,4.10
2022-12-25T06:52:13.972Z,4.00
2022-12-25T06:54:40.855Z,4.00
2022-12-25T06:57:07.803Z,4.00
2022-12-25T06:59:34.829Z,3.90
2022-12-25T07:02:03.097Z,3.70
2022-12-25T07:04:39.013Z,3.50
2022-12-25T07:07:09.152Z,3.40
2022-12-25T07:09:36.662Z,3.40
2022-12-25T07:12:08.001Z,3.30
2022-12-25T07:14:34.834Z,3.30
2022-12-25T07:19:28.995Z,3.40
2022-12-25T07:21:55.917Z,3.40
2022-12-25T07:24:23.367Z,3.40
2022-12-25T07:26:50.833Z,3.50
2022-12-25T07:29:18.221Z,3.50
2022-12-25T07:31:45.220Z,3.50
2022-12-25T07:36:39.552Z,3.50
2022-12-25T07:39:06.431Z,3.60
2022-12-25T07:41:33.331Z,3.60
2022-12-25T07:44:00.284Z,3.60
2022-12-25T07:46:28.417Z,3.70
2022-12-25T07:48:55.463Z,3.70
2022-12-25T07:51:22.557Z,3.70
2022-12-25T07:56:18.006Z,3.80
2022-12-25T07:58:44.995Z,3.90
2022-12-25T08:01:13.534Z,4.00
2022-12-25T08:06:08.712Z,4.10
2022-12-25T08:08:36.070Z,4.20
2022-12-25T08:11:03.123Z,4.20
2022-12-25T08:13:30.914Z,4.30
2022-12-25T08:18:29.846Z,4.40
2022-12-25T08:21:01.819Z,4.50
2022-12-25T08:26:04.546Z,4.60
2022-12-25T08:28:33.201Z,4.70
2022-12-25T08:33:27.348Z,4.90
2022-12-25T08:35:54.278Z,4.90
2022-12-25T08:38:21.115Z,5.00
2022-12-25T08:40:48.007Z,5.10
2022-12-25T08:43:14.938Z,5.20
2022-12-25T08:45:42.427Z,5.20
2022-12-25T08:48:09.335Z,5.30
2022-12-25T08:50:36.168Z,5.30
2022-12-25T08:53:03.070Z,5.50
2022-12-25T08:55:30.247Z,5.60
2022-12-25T09:00:24.318Z,5.90
2022-12-25T09:02:51.244Z,6.10
2022-12-25T09:05:18.244Z,6.30
2022-12-25T09:07:45.103Z,6.50
2022-12-25T09:10:30.869Z,6.70
2022-12-25T09:12:57.768Z,6.90
2022-12-25T09:15:24.751Z,7.10
2022-12-25T09:17:51.619Z,7.30
2022-12-25T09:20:18.517Z,7.60
2022-12-25T09:22:45.391Z,8.00
2022-12-25T09:25:12.253Z,8.20
2022-12-25T09:27:39.420Z,8.70
2022-12-25T09:30:07.197Z,9.30
2022-12-25T09:35:01.337Z,9.60
2022-12-25T09:39:55.559Z,9.80
2022-12-25T09:42:24.184Z,10.00
2022-12-25T09:44:59.239Z,10.10
2022-12-25T09:47:32.404Z,10.30
2022-12-25T09:50:02.396Z,10.30
2022-12-25T09:52:32.273Z,10.10
2022-12-25T09:55:02.213Z,9.90
2022-12-25T09:57:29.185Z,10.10
2022-12-25T09:59:56.546Z,10.20
2022-12-25T10:02:29.529Z,10.20
2022-12-25T10:07:32.381Z,9.90
2022-12-25T10:10:09.900Z,9.80
2022-12-25T10:12:36.743Z,10.00
2022-12-25T10:15:18.740Z,10.10
2022-12-25T10:18:04.091Z,10.20
2022-12-25T10:20:51.238Z,10.20
2022-12-25T10:23:20.209Z,10.20
2022-12-25T10:25:47.906Z,10.20
2022-12-25T10:30:44.147Z,10.40
2022-12-25T10:35:45.955Z,10.70
2022-12-25T10:38:14.919Z,10.90
2022-12-25T10:40:44.890Z,11.10
2022-12-25T10:43:13.585Z,10.80
2022-12-25T10:45:44.807Z,10.70
2022-12-25T10:48:16.219Z,10.50
2022-12-25T10:50:43.400Z,10.30
2022-12-25T10:53:17.426Z,10.20
2022-12-25T10:55:53.689Z,10.60
2022-12-25T10:58:21.924Z,10.90
2022-12-25T11:00:53.456Z,10.70
2022-12-25T11:03:25.636Z,10.70
2022-12-25T11:05:52.897Z,11.00
2022-12-25T11:08:21.761Z,11.00
2022-12-25T11:13:24.578Z,11.00
2022-12-25T11:16:21.015Z,10.80
2022-12-25T11:23:50.545Z,10.50
2022-12-25T11:28:45.364Z,10.10
2022-12-25T11:31:14.363Z,9.90
2022-12-25T11:34:00.469Z,9.80
2022-12-25T11:38:54.644Z,9.80
2022-12-25T11:41:23.966Z,9.70
2022-12-25T11:46:24.123Z,9.60
2022-12-25T11:48:56.454Z,9.60
2022-12-25T11:51:29.205Z,9.50
2022-12-25T12:01:34.486Z,9.70
2022-12-25T12:04:02.867Z,9.70
2022-12-25T12:06:29.783Z,9.80
2022-12-25T12:09:00.624Z,10.10
2022-12-25T12:11:46.814Z,10.20
2022-12-25T12:16:41.151Z,10.20
2022-12-25T12:19:12.822Z,10.20
2022-12-25T12:21:40.508Z,10.20
2022-12-25T12:24:12.174Z,10.00
2022-12-25T12:26:41.128Z,9.90
2022-12-25T13:07:44.200Z,9.30
2022-12-25T13:15:14.086Z,9.10
2022-12-25T13:53:09.923Z,8.50
2022-12-25T13:58:06.657Z,8.50
2022-12-25T14:00:38.259Z,8.40
2022-12-25T14:03:07.656Z,8.40
2022-12-25T14:08:23.188Z,8.30
2022-12-25T14:31:23.750Z,8.10
2022-12-25T14:38:57.866Z,8.20
2022-12-25T14:44:31.675Z,7.80
2022-12-25T14:54:50.280Z,7.10
2022-12-25T15:16:05.500Z,6.40
2022-12-25T15:28:31.615Z,6.00
2022-12-25T16:32:50.581Z,4.20
2022-12-25T18:31:23.527Z,6.50
2022-12-25T20:41:25.017Z,7.20
2022-12-25T20:56:11.062Z,7.60
2022-12-25T21:36:07.825Z,7.70
2022-12-25T22:17:51.417Z,7.50
2022-12-25T22:40:16.280Z,7.10
